sensor_id;sensor_type;location;lat;lon;timestamp;temperature;humidity
27667;DHT22;15074;50.940;5.282;2023-11-21T00:00:20;8.90;99.90
27667;DHT22;15074;50.940;5.282;2023-11-21T00:02:46;8.70;99.90
27667;DHT22;15074;50.940;5.282;2023-11-21T00:05:13;8.70;99.90
27667;DHT22;15074;50.940;5.282;2023-11-21T00:07:42;8.60;99.90
27667;DHT22;15074;50.940;5.282;2023-11-21T00:10:09;8.60;99.90
27667;DHT22;15074;50.940;5.282;2023-11-21T00:12:36;8.70;99.90
27667;DHT22;15074;50.940;5.282;2023-11-21T00:15:03;8.70;99.90
27667;DHT22;15074;50.940;5.282;2023-11-21T00:17:30;8.60;99.90
27667;DHT22;15074;50.940;5.282;2023-11-21T00:19:56;8.50;99.90
27667;DHT22;15074;50.940;5.282;2023-11-21T00:22:22;8.60;99.90
27667;DHT22;15074;50.940;5.282;2023-11-21T00:24:47;8.60;99.90
27667;DHT22;15074;50.940;5.282;2023-11-21T00:27:13;8.60;99.90
27667;DHT22;15074;50.940;5.282;2023-11-21T00:29:40;8.50;99.90
27667;DHT22;15074;50.940;5.282;2023-11-21T00:32:06;8.40;99.90
27667;DHT22;15074;50.940;5.282;2023-11-21T00:34:32;8.50;99.90
27667;DHT22;15074;50.940;5.282;2023-11-21T00:36:58;8.50;99.90
27667;DHT22;15074;50.940;5.282;2023-11-21T00:39:24;8.50;99.90
27667;DHT22;15074;50.940;5.282;2023-11-21T00:41:50;8.50;99.90
27667;DHT22;15074;50.940;5.282;2023-11-21T00:44:16;8.50;99.90
27667;DHT22;15074;50.940;5.282;2023-11-21T00:46:42;8.60;99.90
27667;DHT22;15074;50.940;5.282;2023-11-21T00:49:07;8.60;99.90
27667;DHT22;15074;50.940;5.282;2023-11-21T00:51:33;8.50;99.90
27667;DHT22;15074;50.940;5.282;2023-11-21T00:53:59;8.50;99.90
27667;DHT22;15074;50.940;5.282;2023-11-21T00:56:25;8.50;99.90
27667;DHT22;15074;50.940;5.282;2023-11-21T00:58:51;8.50;99.90
27667;DHT22;15074;50.940;5.282;2023-11-21T01:01:18;8.60;99.90
27667;DHT22;15074;50.940;5.282;2023-11-21T01:03:46;8.60;99.90
27667;DHT22;15074;50.940;5.282;2023-11-21T01:06:11;8.50;99.90
27667;DHT22;15074;50.940;5.282;2023-11-21T01:08:37;8.50;99.90
27667;DHT22;15074;50.940;5.282;2023-11-21T01:11:03;8.60;99.90
27667;DHT22;15074;50.940;5.282;2023-11-21T01:13:30;8.60;99.90
27667;DHT22;15074;50.940;5.282;2023-11-21T01:15:56;8.60;99.90
27667;DHT22;15074;50.940;5.282;2023-11-21T01:18:22;8.60;99.90
27667;DHT22;15074;50.940;5.282;2023-11-21T01:20:47;8.60;99.90
27667;DHT22;15074;50.940;5.282;2023-11-21T01:23:13;8.70;99.90
27667;DHT22;15074;50.940;5.282;2023-11-21T01:25:39;8.70;99.90
27667;DHT22;15074;50.940;5.282;2023-11-21T01:28:05;8.70;99.90
27667;DHT22;15074;50.940;5.282;2023-11-21T01:30:31;8.80;99.90
27667;DHT22;15074;50.940;5.282;2023-11-21T01:32:58;8.80;99.90
27667;DHT22;15074;50.940;5.282;2023-11-21T01:35:24;8.70;99.90
27667;DHT22;15074;50.940;5.282;2023-11-21T01:37:50;8.60;99.90
27667;DHT22;15074;50.940;5.282;2023-11-21T01:40:16;8.60;99.90
27667;DHT22;15074;50.940;5.282;2023-11-21T01:42:43;8.60;99.90
27667;DHT22;15074;50.940;5.282;2023-11-21T01:45:09;8.70;99.90
27667;DHT22;15074;50.940;5.282;2023-11-21T01:47:36;8.60;99.90
27667;DHT22;15074;50.940;5.282;2023-11-21T01:50:03;8.60;99.90
27667;DHT22;15074;50.940;5.282;2023-11-21T01:52:32;8.70;99.90
27667;DHT22;15074;50.940;5.282;2023-11-21T01:54:59;8.70;99.90
27667;DHT22;15074;50.940;5.282;2023-11-21T01:57:25;8.80;99.90
27667;DHT22;15074;50.940;5.282;2023-11-21T01:59:54;8.90;99.90
27667;DHT22;15074;50.940;5.282;2023-11-21T02:02:19;8.90;99.90
27667;DHT22;15074;50.940;5.282;2023-11-21T02:04:45;9.00;99.90
27667;DHT22;15074;50.940;5.282;2023-11-21T02:07:11;8.90;99.90
27667;DHT22;15074;50.940;5.282;2023-11-21T02:09:37;8.90;99.90
27667;DHT22;15074;50.940;5.282;2023-11-21T02:12:08;8.90;99.90
27667;DHT22;15074;50.940;5.282;2023-11-21T02:14:35;8.90;99.90
27667;DHT22;15074;50.940;5.282;2023-11-21T02:17:02;8.90;99.90
27667;DHT22;15074;50.940;5.282;2023-11-21T02:19:29;9.00;99.90
27667;DHT22;15074;50.940;5.282;2023-11-21T02:21:57;8.80;99.90
27667;DHT22;15074;50.940;5.282;2023-11-21T02:24:28;8.80;99.90
27667;DHT22;15074;50.940;5.282;2023-11-21T02:26:54;8.70;99.90
27667;DHT22;15074;50.940;5.282;2023-11-21T02:29:21;8.70;99.90
27667;DHT22;15074;50.940;5.282;2023-11-21T02:31:54;8.70;99.90
27667;DHT22;15074;50.940;5.282;2023-11-21T02:34:21;8.80;99.90
27667;DHT22;15074;50.940;5.282;2023-11-21T02:36:47;8.80;99.90
27667;DHT22;15074;50.940;5.282;2023-11-21T02:39:15;8.80;99.90
27667;DHT22;15074;50.940;5.282;2023-11-21T02:41:40;8.90;99.90
27667;DHT22;15074;50.940;5.282;2023-11-21T02:44:06;8.80;99.90
27667;DHT22;15074;50.940;5.282;2023-11-21T02:46:33;8.90;99.90
27667;DHT22;15074;50.940;5.282;2023-11-21T02:49:00;8.90;99.90
27667;DHT22;15074;50.940;5.282;2023-11-21T02:51:26;8.90;99.90
27667;DHT22;15074;50.940;5.282;2023-11-21T02:53:52;9.00;99.90
27667;DHT22;15074;50.940;5.282;2023-11-21T02:56:17;9.00;99.90
27667;DHT22;15074;50.940;5.282;2023-11-21T02:58:43;8.90;99.90
27667;DHT22;15074;50.940;5.282;2023-11-21T03:01:09;9.00;99.90
27667;DHT22;15074;50.940;5.282;2023-11-21T03:03:39;9.00;99.90
27667;DHT22;15074;50.940;5.282;2023-11-21T03:06:06;9.10;99.90
27667;DHT22;15074;50.940;5.282;2023-11-21T03:08:32;9.10;99.90
27667;DHT22;15074;50.940;5.282;2023-11-21T03:10:58;9.10;99.90
27667;DHT22;15074;50.940;5.282;2023-11-21T03:13:24;9.10;99.90
27667;DHT22;15074;50.940;5.282;2023-11-21T03:15:49;9.10;99.90
27667;DHT22;15074;50.940;5.282;2023-11-21T03:18:15;9.20;99.90
27667;DHT22;15074;50.940;5.282;2023-11-21T03:20:43;9.20;99.90
27667;DHT22;15074;50.940;5.282;2023-11-21T03:23:11;9.10;99.90
27667;DHT22;15074;50.940;5.282;2023-11-21T03:25:37;9.10;99.90
27667;DHT22;15074;50.940;5.282;2023-11-21T03:28:03;9.10;99.90
27667;DHT22;15074;50.940;5.282;2023-11-21T03:30:29;9.10;99.90
27667;DHT22;15074;50.940;5.282;2023-11-21T03:32:55;9.00;99.90
27667;DHT22;15074;50.940;5.282;2023-11-21T03:35:20;9.00;99.90
27667;DHT22;15074;50.940;5.282;2023-11-21T03:37:47;9.00;99.90
27667;DHT22;15074;50.940;5.282;2023-11-21T03:40:12;9.00;99.90
27667;DHT22;15074;50.940;5.282;2023-11-21T03:42:38;9.10;99.90
27667;DHT22;15074;50.940;5.282;2023-11-21T03:45:05;9.00;99.90
27667;DHT22;15074;50.940;5.282;2023-11-21T03:47:31;8.90;99.90
27667;DHT22;15074;50.940;5.282;2023-11-21T03:49:57;8.90;99.90
27667;DHT22;15074;50.940;5.282;2023-11-21T03:52:23;8.90;99.90
27667;DHT22;15074;50.940;5.282;2023-11-21T03:54:49;8.90;99.90
27667;DHT22;15074;50.940;5.282;2023-11-21T03:57:14;8.90;99.90
27667;DHT22;15074;50.940;5.282;2023-11-21T03:59:41;9.00;99.90
27667;DHT22;15074;50.940;5.282;2023-11-21T04:02:07;9.00;99.90
27667;DHT22;15074;50.940;5.282;2023-11-21T04:04:33;9.10;99.90
27667;DHT22;15074;50.940;5.282;2023-11-21T04:06:59;9.10;99.90
27667;DHT22;15074;50.940;5.282;2023-11-21T04:09:25;9.10;99.90
27667;DHT22;15074;50.940;5.282;2023-11-21T04:11:51;9.00;99.90
27667;DHT22;15074;50.940;5.282;2023-11-21T04:14:17;9.00;99.90
27667;DHT22;15074;50.940;5.282;2023-11-21T04:16:43;8.90;99.90
27667;DHT22;15074;50.940;5.282;2023-11-21T04:19:08;9.00;99.90
27667;DHT22;15074;50.940;5.282;2023-11-21T04:21:40;9.00;99.90
27667;DHT22;15074;50.940;5.282;2023-11-21T04:24:06;9.10;99.90
27667;DHT22;15074;50.940;5.282;2023-11-21T04:26:32;9.00;99.90
27667;DHT22;15074;50.940;5.282;2023-11-21T04:28:58;9.10;99.90
27667;DHT22;15074;50.940;5.282;2023-11-21T04:31:24;9.00;99.90
27667;DHT22;15074;50.940;5.282;2023-11-21T04:33:49;8.90;99.90
27667;DHT22;15074;50.940;5.282;2023-11-21T04:36:15;8.80;99.90
27667;DHT22;15074;50.940;5.282;2023-11-21T04:38:41;8.70;99.90
27667;DHT22;15074;50.940;5.282;2023-11-21T04:41:07;8.70;99.90
27667;DHT22;15074;50.940;5.282;2023-11-21T04:43:33;8.70;99.90
27667;DHT22;15074;50.940;5.282;2023-11-21T04:45:58;8.60;99.90
27667;DHT22;15074;50.940;5.282;2023-11-21T04:48:24;8.60;99.90
27667;DHT22;15074;50.940;5.282;2023-11-21T04:50:50;8.60;99.90
27667;DHT22;15074;50.940;5.282;2023-11-21T04:53:17;8.60;99.90
27667;DHT22;15074;50.940;5.282;2023-11-21T04:55:43;8.80;99.90
27667;DHT22;15074;50.940;5.282;2023-11-21T04:58:09;8.70;99.90
27667;DHT22;15074;50.940;5.282;2023-11-21T05:00:35;8.70;99.90
27667;DHT22;15074;50.940;5.282;2023-11-21T05:03:02;8.70;99.90
27667;DHT22;15074;50.940;5.282;2023-11-21T05:05:29;8.70;99.90
27667;DHT22;15074;50.940;5.282;2023-11-21T05:07:57;8.60;99.90
27667;DHT22;15074;50.940;5.282;2023-11-21T05:10:23;8.70;99.90
27667;DHT22;15074;50.940;5.282;2023-11-21T05:12:49;8.90;99.90
27667;DHT22;15074;50.940;5.282;2023-11-21T05:15:16;9.00;99.90
27667;DHT22;15074;50.940;5.282;2023-11-21T05:17:45;9.00;99.90
27667;DHT22;15074;50.940;5.282;2023-11-21T05:20:14;8.80;99.90
27667;DHT22;15074;50.940;5.282;2023-11-21T05:22:43;8.80;99.90
27667;DHT22;15074;50.940;5.282;2023-11-21T05:25:09;8.80;99.90
27667;DHT22;15074;50.940;5.282;2023-11-21T05:27:36;8.80;99.90
27667;DHT22;15074;50.940;5.282;2023-11-21T05:30:03;8.80;99.90
27667;DHT22;15074;50.940;5.282;2023-11-21T05:32:37;8.80;99.90
27667;DHT22;15074;50.940;5.282;2023-11-21T05:35:03;8.70;99.90
27667;DHT22;15074;50.940;5.282;2023-11-21T05:37:35;8.80;99.90
27667;DHT22;15074;50.940;5.282;2023-11-21T05:40:01;8.80;99.90
27667;DHT22;15074;50.940;5.282;2023-11-21T05:42:31;8.80;99.90
27667;DHT22;15074;50.940;5.282;2023-11-21T05:44:57;8.70;99.90
27667;DHT22;15074;50.940;5.282;2023-11-21T05:47:24;8.80;99.90
27667;DHT22;15074;50.940;5.282;2023-11-21T05:49:51;8.80;99.90
27667;DHT22;15074;50.940;5.282;2023-11-21T05:52:18;8.90;99.90
27667;DHT22;15074;50.940;5.282;2023-11-21T05:54:43;8.90;99.90
27667;DHT22;15074;50.940;5.282;2023-11-21T05:57:09;8.90;99.90
27667;DHT22;15074;50.940;5.282;2023-11-21T05:59:35;9.00;99.90
27667;DHT22;15074;50.940;5.282;2023-11-21T06:02:00;9.00;99.90
27667;DHT22;15074;50.940;5.282;2023-11-21T06:04:27;9.10;99.90
27667;DHT22;15074;50.940;5.282;2023-11-21T06:06:53;9.10;99.90
27667;DHT22;15074;50.940;5.282;2023-11-21T06:09:19;9.10;99.90
27667;DHT22;15074;50.940;5.282;2023-11-21T06:11:45;9.00;99.90
27667;DHT22;15074;50.940;5.282;2023-11-21T06:14:10;9.10;99.90
27667;DHT22;15074;50.940;5.282;2023-11-21T06:16:36;9.10;99.90
27667;DHT22;15074;50.940;5.282;2023-11-21T06:19:02;9.20;99.90
27667;DHT22;15074;50.940;5.282;2023-11-21T06:21:28;9.10;99.90
27667;DHT22;15074;50.940;5.282;2023-11-21T06:23:54;9.10;99.90
27667;DHT22;15074;50.940;5.282;2023-11-21T06:26:22;9.00;99.90
27667;DHT22;15074;50.940;5.282;2023-11-21T06:28:48;8.90;99.90
27667;DHT22;15074;50.940;5.282;2023-11-21T06:31:16;8.70;99.90
27667;DHT22;15074;50.940;5.282;2023-11-21T06:33:42;8.70;99.90
27667;DHT22;15074;50.940;5.282;2023-11-21T06:36:08;8.80;99.90
27667;DHT22;15074;50.940;5.282;2023-11-21T06:38:37;8.70;99.90
27667;DHT22;15074;50.940;5.282;2023-11-21T06:41:03;8.70;99.90
27667;DHT22;15074;50.940;5.282;2023-11-21T06:43:29;8.70;99.90
27667;DHT22;15074;50.940;5.282;2023-11-21T06:45:57;8.70;99.90
27667;DHT22;15074;50.940;5.282;2023-11-21T06:48:22;8.80;99.90
27667;DHT22;15074;50.940;5.282;2023-11-21T06:50:48;8.70;99.90
27667;DHT22;15074;50.940;5.282;2023-11-21T06:53:14;8.80;99.90
27667;DHT22;15074;50.940;5.282;2023-11-21T06:55:40;8.90;99.90
27667;DHT22;15074;50.940;5.282;2023-11-21T06:58:06;9.00;99.90
27667;DHT22;15074;50.940;5.282;2023-11-21T07:00:31;9.10;99.90
27667;DHT22;15074;50.940;5.282;2023-11-21T07:02:57;9.00;99.90
27667;DHT22;15074;50.940;5.282;2023-11-21T07:05:23;9.00;99.90
27667;DHT22;15074;50.940;5.282;2023-11-21T07:07:49;9.00;99.90
27667;DHT22;15074;50.940;5.282;2023-11-21T07:10:15;9.10;99.90
27667;DHT22;15074;50.940;5.282;2023-11-21T07:12:42;9.10;99.90
27667;DHT22;15074;50.940;5.282;2023-11-21T07:15:08;9.20;99.90
27667;DHT22;15074;50.940;5.282;2023-11-21T07:17:36;9.30;99.90
27667;DHT22;15074;50.940;5.282;2023-11-21T07:20:03;9.20;99.90
27667;DHT22;15074;50.940;5.282;2023-11-21T07:22:29;9.30;99.90
27667;DHT22;15074;50.940;5.282;2023-11-21T07:24:55;9.40;99.90
27667;DHT22;15074;50.940;5.282;2023-11-21T07:27:24;9.40;99.90
27667;DHT22;15074;50.940;5.282;2023-11-21T07:29:49;9.30;99.90
27667;DHT22;15074;50.940;5.282;2023-11-21T07:32:15;9.30;99.90
27667;DHT22;15074;50.940;5.282;2023-11-21T07:34:41;9.30;99.90
27667;DHT22;15074;50.940;5.282;2023-11-21T07:37:07;9.30;99.90
27667;DHT22;15074;50.940;5.282;2023-11-21T07:39:35;9.20;99.90
27667;DHT22;15074;50.940;5.282;2023-11-21T07:42:01;9.20;99.90
27667;DHT22;15074;50.940;5.282;2023-11-21T07:44:28;9.30;99.90
27667;DHT22;15074;50.940;5.282;2023-11-21T07:46:53;9.20;99.90
27667;DHT22;15074;50.940;5.282;2023-11-21T07:49:23;9.20;99.90
27667;DHT22;15074;50.940;5.282;2023-11-21T07:51:49;9.10;99.90
27667;DHT22;15074;50.940;5.282;2023-11-21T07:54:15;9.20;99.90
27667;DHT22;15074;50.940;5.282;2023-11-21T07:56:41;9.20;99.90
27667;DHT22;15074;50.940;5.282;2023-11-21T07:59:06;9.30;99.90
27667;DHT22;15074;50.940;5.282;2023-11-21T08:01:32;9.30;99.90
27667;DHT22;15074;50.940;5.282;2023-11-21T08:03:58;9.30;99.90
27667;DHT22;15074;50.940;5.282;2023-11-21T08:06:27;9.30;99.90
27667;DHT22;15074;50.940;5.282;2023-11-21T08:08:53;9.20;99.90
27667;DHT22;15074;50.940;5.282;2023-11-21T08:11:19;9.20;99.90
27667;DHT22;15074;50.940;5.282;2023-11-21T08:13:45;9.30;99.90
27667;DHT22;15074;50.940;5.282;2023-11-21T08:16:12;9.30;99.90
27667;DHT22;15074;50.940;5.282;2023-11-21T08:18:37;9.40;99.90
27667;DHT22;15074;50.940;5.282;2023-11-21T08:21:03;9.50;99.90
27667;DHT22;15074;50.940;5.282;2023-11-21T08:23:30;9.60;99.90
27667;DHT22;15074;50.940;5.282;2023-11-21T08:25:56;9.50;99.90
27667;DHT22;15074;50.940;5.282;2023-11-21T08:31:28;9.60;99.90
27667;DHT22;15074;50.940;5.282;2023-11-21T08:33:54;9.50;99.90
27667;DHT22;15074;50.940;5.282;2023-11-21T08:36:23;9.50;99.90
27667;DHT22;15074;50.940;5.282;2023-11-21T08:38:52;9.50;99.90
27667;DHT22;15074;50.940;5.282;2023-11-21T08:41:18;9.70;99.90
27667;DHT22;15074;50.940;5.282;2023-11-21T08:43:49;9.50;99.90
27667;DHT22;15074;50.940;5.282;2023-11-21T08:46:15;9.50;99.90
27667;DHT22;15074;50.940;5.282;2023-11-21T08:48:42;9.60;99.90
27667;DHT22;15074;50.940;5.282;2023-11-21T08:51:10;9.60;99.90
27667;DHT22;15074;50.940;5.282;2023-11-21T08:53:39;9.70;99.90
27667;DHT22;15074;50.940;5.282;2023-11-21T08:56:05;9.70;99.90
27667;DHT22;15074;50.940;5.282;2023-11-21T08:58:32;9.60;99.90
27667;DHT22;15074;50.940;5.282;2023-11-21T09:00:58;9.70;99.90
27667;DHT22;15074;50.940;5.282;2023-11-21T09:03:24;9.80;99.90
27667;DHT22;15074;50.940;5.282;2023-11-21T09:05:50;9.90;99.90
27667;DHT22;15074;50.940;5.282;2023-11-21T09:08:15;9.90;99.90
27667;DHT22;15074;50.940;5.282;2023-11-21T09:10:41;9.90;99.90
27667;DHT22;15074;50.940;5.282;2023-11-21T09:13:08;9.80;99.90
27667;DHT22;15074;50.940;5.282;2023-11-21T09:15:35;9.90;99.90
27667;DHT22;15074;50.940;5.282;2023-11-21T09:18:01;9.80;99.90
27667;DHT22;15074;50.940;5.282;2023-11-21T09:20:27;9.60;99.90
27667;DHT22;15074;50.940;5.282;2023-11-21T09:22:53;9.60;99.90
27667;DHT22;15074;50.940;5.282;2023-11-21T09:25:21;9.60;99.90
27667;DHT22;15074;50.940;5.282;2023-11-21T09:27:48;9.60;99.90
27667;DHT22;15074;50.940;5.282;2023-11-21T09:30:13;9.60;99.90
27667;DHT22;15074;50.940;5.282;2023-11-21T09:32:43;9.80;99.90
27667;DHT22;15074;50.940;5.282;2023-11-21T09:35:10;9.80;99.90
27667;DHT22;15074;50.940;5.282;2023-11-21T09:37:37;10.00;99.90
27667;DHT22;15074;50.940;5.282;2023-11-21T09:40:05;10.20;99.90
27667;DHT22;15074;50.940;5.282;2023-11-21T09:42:49;10.20;99.90
27667;DHT22;15074;50.940;5.282;2023-11-21T09:45:27;10.10;99.90
27667;DHT22;15074;50.940;5.282;2023-11-21T09:47:57;10.30;99.90
27667;DHT22;15074;50.940;5.282;2023-11-21T09:50:23;10.40;99.90
27667;DHT22;15074;50.940;5.282;2023-11-21T09:55:18;10.50;99.90
27667;DHT22;15074;50.940;5.282;2023-11-21T09:57:47;10.50;99.90
27667;DHT22;15074;50.940;5.282;2023-11-21T10:00:15;10.60;99.90
27667;DHT22;15074;50.940;5.282;2023-11-21T10:02:44;10.50;99.90
27667;DHT22;15074;50.940;5.282;2023-11-21T10:05:10;10.50;99.90
27667;DHT22;15074;50.940;5.282;2023-11-21T10:07:39;10.50;99.90
27667;DHT22;15074;50.940;5.282;2023-11-21T10:10:07;10.50;99.90
27667;DHT22;15074;50.940;5.282;2023-11-21T10:12:35;10.50;99.90
27667;DHT22;15074;50.940;5.282;2023-11-21T10:15:03;10.40;99.90
27667;DHT22;15074;50.940;5.282;2023-11-21T10:17:31;10.50;99.90
27667;DHT22;15074;50.940;5.282;2023-11-21T10:20:05;10.50;99.90
27667;DHT22;15074;50.940;5.282;2023-11-21T10:22:41;10.60;99.90
27667;DHT22;15074;50.940;5.282;2023-11-21T10:25:08;10.80;99.90
27667;DHT22;15074;50.940;5.282;2023-11-21T10:27:37;10.90;99.90
27667;DHT22;15074;50.940;5.282;2023-11-21T10:30:06;10.70;99.90
27667;DHT22;15074;50.940;5.282;2023-11-21T10:32:39;10.70;99.90
27667;DHT22;15074;50.940;5.282;2023-11-21T10:35:06;10.80;99.90
27667;DHT22;15074;50.940;5.282;2023-11-21T10:37:39;10.70;99.90
27667;DHT22;15074;50.940;5.282;2023-11-21T10:40:11;10.60;99.90
27667;DHT22;15074;50.940;5.282;2023-11-21T10:42:40;10.60;99.90
27667;DHT22;15074;50.940;5.282;2023-11-21T10:45:07;10.60;99.90
27667;DHT22;15074;50.940;5.282;2023-11-21T10:47:44;10.60;99.90
27667;DHT22;15074;50.940;5.282;2023-11-21T10:50:10;10.60;99.90
27667;DHT22;15074;50.940;5.282;2023-11-21T10:52:40;10.70;99.90
27667;DHT22;15074;50.940;5.282;2023-11-21T10:55:20;10.90;99.90
27667;DHT22;15074;50.940;5.282;2023-11-21T10:57:48;10.90;99.90
27667;DHT22;15074;50.940;5.282;2023-11-21T11:00:15;11.00;99.90
27667;DHT22;15074;50.940;5.282;2023-11-21T11:02:41;11.00;99.90
27667;DHT22;15074;50.940;5.282;2023-11-21T11:05:08;11.00;99.90
27667;DHT22;15074;50.940;5.282;2023-11-21T11:07:41;11.00;99.90
27667;DHT22;15074;50.940;5.282;2023-11-21T11:10:09;10.90;99.90
27667;DHT22;15074;50.940;5.282;2023-11-21T11:12:40;11.00;99.90
27667;DHT22;15074;50.940;5.282;2023-11-21T11:15:07;11.00;99.90
27667;DHT22;15074;50.940;5.282;2023-11-21T11:17:36;10.90;99.90
27667;DHT22;15074;50.940;5.282;2023-11-21T11:20:05;10.80;99.90
27667;DHT22;15074;50.940;5.282;2023-11-21T11:25:47;10.90;99.90
27667;DHT22;15074;50.940;5.282;2023-11-21T11:28:35;11.00;99.90
27667;DHT22;15074;50.940;5.282;2023-11-21T11:31:33;11.10;99.90
27667;DHT22;15074;50.940;5.282;2023-11-21T11:34:16;11.30;99.90
27667;DHT22;15074;50.940;5.282;2023-11-21T11:36:49;11.20;99.90
27667;DHT22;15074;50.940;5.282;2023-11-21T11:39:30;11.10;99.90
27667;DHT22;15074;50.940;5.282;2023-11-21T11:41:58;11.20;99.90
27667;DHT22;15074;50.940;5.282;2023-11-21T11:47:30;11.20;99.90
27667;DHT22;15074;50.940;5.282;2023-11-21T11:50:06;11.30;99.90
27667;DHT22;15074;50.940;5.282;2023-11-21T11:55:17;11.50;99.90
27667;DHT22;15074;50.940;5.282;2023-11-21T11:57:48;11.40;99.90
27667;DHT22;15074;50.940;5.282;2023-11-21T12:00:19;11.50;99.90
27667;DHT22;15074;50.940;5.282;2023-11-21T12:02:51;11.50;99.90
27667;DHT22;15074;50.940;5.282;2023-11-21T12:05:18;11.50;99.90
27667;DHT22;15074;50.940;5.282;2023-11-21T12:07:51;11.50;99.90
27667;DHT22;15074;50.940;5.282;2023-11-21T12:10:24;11.60;99.90
27667;DHT22;15074;50.940;5.282;2023-11-21T12:12:55;11.60;99.90
27667;DHT22;15074;50.940;5.282;2023-11-21T12:15:22;11.60;99.90
27667;DHT22;15074;50.940;5.282;2023-11-21T12:17:48;11.60;99.90
27667;DHT22;15074;50.940;5.282;2023-11-21T12:20:17;11.60;99.90
27667;DHT22;15074;50.940;5.282;2023-11-21T12:22:45;11.60;99.90
27667;DHT22;15074;50.940;5.282;2023-11-21T12:25:25;11.50;99.90
27667;DHT22;15074;50.940;5.282;2023-11-21T12:27:54;11.60;99.90
27667;DHT22;15074;50.940;5.282;2023-11-21T12:30:22;11.70;99.90
27667;DHT22;15074;50.940;5.282;2023-11-21T12:32:53;11.80;99.90
27667;DHT22;15074;50.940;5.282;2023-11-21T12:35:24;11.90;99.90
27667;DHT22;15074;50.940;5.282;2023-11-21T12:37:51;11.90;99.90
27667;DHT22;15074;50.940;5.282;2023-11-21T12:40:18;12.00;99.90
27667;DHT22;15074;50.940;5.282;2023-11-21T12:42:48;11.80;99.90
27667;DHT22;15074;50.940;5.282;2023-11-21T12:48:02;11.70;99.90
27667;DHT22;15074;50.940;5.282;2023-11-21T12:50:30;11.60;99.90
27667;DHT22;15074;50.940;5.282;2023-11-21T12:53:07;11.70;99.90
27667;DHT22;15074;50.940;5.282;2023-11-21T12:55:34;11.60;99.90
27667;DHT22;15074;50.940;5.282;2023-11-21T12:58:06;11.70;99.90
27667;DHT22;15074;50.940;5.282;2023-11-21T13:00:36;11.70;99.90
27667;DHT22;15074;50.940;5.282;2023-11-21T13:03:06;11.70;99.90
27667;DHT22;15074;50.940;5.282;2023-11-21T13:05:37;11.70;99.90
27667;DHT22;15074;50.940;5.282;2023-11-21T13:08:08;11.70;99.90
27667;DHT22;15074;50.940;5.282;2023-11-21T13:10:36;11.70;99.90
27667;DHT22;15074;50.940;5.282;2023-11-21T13:13:06;11.70;99.90
27667;DHT22;15074;50.940;5.282;2023-11-21T13:15:34;11.60;99.90
27667;DHT22;15074;50.940;5.282;2023-11-21T13:18:02;11.60;99.90
27667;DHT22;15074;50.940;5.282;2023-11-21T13:20:27;11.70;99.90
27667;DHT22;15074;50.940;5.282;2023-11-21T13:22:56;11.60;99.90
27667;DHT22;15074;50.940;5.282;2023-11-21T13:25:27;11.60;99.90
27667;DHT22;15074;50.940;5.282;2023-11-21T13:27:54;11.60;99.90
27667;DHT22;15074;50.940;5.282;2023-11-21T13:30:20;11.80;99.90
27667;DHT22;15074;50.940;5.282;2023-11-21T13:32:52;11.80;99.90
27667;DHT22;15074;50.940;5.282;2023-11-21T13:35:19;11.80;99.90
27667;DHT22;15074;50.940;5.282;2023-11-21T13:37:56;11.80;99.90
27667;DHT22;15074;50.940;5.282;2023-11-21T13:40:24;11.90;99.90
27667;DHT22;15074;50.940;5.282;2023-11-21T13:42:54;12.00;99.90
27667;DHT22;15074;50.940;5.282;2023-11-21T13:45:23;11.90;99.90
27667;DHT22;15074;50.940;5.282;2023-11-21T13:47:51;12.00;99.90
27667;DHT22;15074;50.940;5.282;2023-11-21T13:50:18;12.00;99.90
27667;DHT22;15074;50.940;5.282;2023-11-21T13:52:49;11.90;99.90
27667;DHT22;15074;50.940;5.282;2023-11-21T13:55:16;11.90;99.90
27667;DHT22;15074;50.940;5.282;2023-11-21T13:57:42;12.10;99.90
27667;DHT22;15074;50.940;5.282;2023-11-21T14:00:11;12.00;99.90
27667;DHT22;15074;50.940;5.282;2023-11-21T14:02:57;12.00;99.90
27667;DHT22;15074;50.940;5.282;2023-11-21T14:05:26;11.90;99.90
27667;DHT22;15074;50.940;5.282;2023-11-21T14:07:55;11.90;99.90
27667;DHT22;15074;50.940;5.282;2023-11-21T14:10:22;11.90;99.90
27667;DHT22;15074;50.940;5.282;2023-11-21T14:12:50;11.80;99.90
27667;DHT22;15074;50.940;5.282;2023-11-21T14:15:15;11.60;99.90
27667;DHT22;15074;50.940;5.282;2023-11-21T14:17:44;11.60;99.90
27667;DHT22;15074;50.940;5.282;2023-11-21T14:20:10;11.70;99.90
27667;DHT22;15074;50.940;5.282;2023-11-21T14:22:46;11.60;99.90
27667;DHT22;15074;50.940;5.282;2023-11-21T14:25:12;11.50;99.90
27667;DHT22;15074;50.940;5.282;2023-11-21T14:27:39;11.50;99.90
27667;DHT22;15074;50.940;5.282;2023-11-21T14:30:05;11.50;99.90
27667;DHT22;15074;50.940;5.282;2023-11-21T14:32:32;11.50;99.90
27667;DHT22;15074;50.940;5.282;2023-11-21T14:34:57;11.60;99.90
27667;DHT22;15074;50.940;5.282;2023-11-21T14:37:23;11.40;99.90
27667;DHT22;15074;50.940;5.282;2023-11-21T14:39:49;11.50;99.90
27667;DHT22;15074;50.940;5.282;2023-11-21T14:42:15;11.50;99.90
27667;DHT22;15074;50.940;5.282;2023-11-21T14:44:41;11.50;99.90
27667;DHT22;15074;50.940;5.282;2023-11-21T14:47:08;11.50;99.90
27667;DHT22;15074;50.940;5.282;2023-11-21T14:49:42;11.60;99.90
27667;DHT22;15074;50.940;5.282;2023-11-21T14:52:19;11.60;99.90
27667;DHT22;15074;50.940;5.282;2023-11-21T14:55:05;11.60;99.90
27667;DHT22;15074;50.940;5.282;2023-11-21T14:57:47;11.60;99.90
27667;DHT22;15074;50.940;5.282;2023-11-21T15:00:19;11.70;99.90
27667;DHT22;15074;50.940;5.282;2023-11-21T15:03:08;11.70;99.90
27667;DHT22;15074;50.940;5.282;2023-11-21T15:05:35;11.60;99.90
27667;DHT22;15074;50.940;5.282;2023-11-21T15:08:01;11.70;99.90
27667;DHT22;15074;50.940;5.282;2023-11-21T15:10:59;11.70;99.90
27667;DHT22;15074;50.940;5.282;2023-11-21T15:13:25;11.70;99.90
27667;DHT22;15074;50.940;5.282;2023-11-21T15:15:52;11.60;99.90
27667;DHT22;15074;50.940;5.282;2023-11-21T15:18:20;11.50;99.90
27667;DHT22;15074;50.940;5.282;2023-11-21T15:20:46;11.50;99.90
27667;DHT22;15074;50.940;5.282;2023-11-21T15:23:12;11.50;99.90
27667;DHT22;15074;50.940;5.282;2023-11-21T15:25:38;11.50;99.90
27667;DHT22;15074;50.940;5.282;2023-11-21T15:28:04;11.40;99.90
27667;DHT22;15074;50.940;5.282;2023-11-21T15:30:31;11.20;99.90
27667;DHT22;15074;50.940;5.282;2023-11-21T15:32:58;11.20;99.90
27667;DHT22;15074;50.940;5.282;2023-11-21T15:35:24;11.10;99.90
27667;DHT22;15074;50.940;5.282;2023-11-21T15:37:49;11.10;99.90
27667;DHT22;15074;50.940;5.282;2023-11-21T15:40:15;11.10;99.90
27667;DHT22;15074;50.940;5.282;2023-11-21T15:42:42;11.10;99.90
27667;DHT22;15074;50.940;5.282;2023-11-21T15:45:08;11.10;99.90
27667;DHT22;15074;50.940;5.282;2023-11-21T15:47:34;11.10;99.90
27667;DHT22;15074;50.940;5.282;2023-11-21T15:50:01;11.10;99.90
27667;DHT22;15074;50.940;5.282;2023-11-21T15:52:26;11.10;99.90
27667;DHT22;15074;50.940;5.282;2023-11-21T15:54:54;11.10;99.90
27667;DHT22;15074;50.940;5.282;2023-11-21T15:57:19;11.00;99.90
27667;DHT22;15074;50.940;5.282;2023-11-21T15:59:47;11.00;99.90